<?xml version="1.0" encoding="UTF-8" standalone="no" ?>
<gpx xmlns="http://www.topografix.com/GPX/1/1" xmlns:xsi="http://www.w3.org/2001/XMLSchema-instance" xsi:schemaLocation="http://www.topografix.com/GPX/1/1 http://www.topografix.com/GPX/1/1/gpx.xsd" version="1.1" creator="VisuGPX - https://www.visugpx.com">
  <metadata>
    <name>VacancesDricouZoe</name>
  </metadata>
  <trk>
    <name><![CDATA[Journal actif: 2021-07-05 10:36]]></name>
    <trkseg>
      <trkpt lat="43.46616" lon="-1.57202">
        <ele>13.12</ele>
        <time>2021-07-05T12:36:41Z</time>
      </trkpt>
      <trkpt lat="43.46614" lon="-1.57199">
        <ele>12.63</ele>
        <time>2021-07-05T12:37:34Z</time>
      </trkpt>
      <trkpt lat="43.46588" lon="-1.57194">
        <ele>11.67</ele>
        <time>2021-07-05T12:37:56Z</time>
      </trkpt>
      <trkpt lat="43.46582" lon="-1.57177">
        <ele>11.67</ele>
        <time>2021-07-05T12:38:09Z</time>
      </trkpt>
      <trkpt lat="43.46577" lon="-1.57168">
        <ele>11.67</ele>
        <time>2021-07-05T12:38:14Z</time>
      </trkpt>
      <trkpt lat="43.46575" lon="-1.57168">
        <ele>11.67</ele>
        <time>2021-07-05T12:38:15Z</time>
      </trkpt>
      <trkpt lat="43.46575" lon="-1.57168">
        <ele>11.67</ele>
        <time>2021-07-05T12:38:16Z</time>
      </trkpt>
      <trkpt lat="43.46574" lon="-1.57168">
        <ele>11.67</ele>
        <time>2021-07-05T12:38:17Z</time>
      </trkpt>
      <trkpt lat="43.46572" lon="-1.57168">
        <ele>11.67</ele>
        <time>2021-07-05T12:38:18Z</time>
      </trkpt>
      <trkpt lat="43.4657" lon="-1.57167">
        <ele>11.19</ele>
        <time>2021-07-05T12:38:19Z</time>
      </trkpt>
      <trkpt lat="43.46568" lon="-1.57167">
        <ele>10.71</ele>
        <time>2021-07-05T12:38:37Z</time>
      </trkpt>
      <trkpt lat="43.46568" lon="-1.57167">
        <ele>9.75</ele>
        <time>2021-07-05T12:38:56Z</time>
      </trkpt>
      <trkpt lat="43.46535" lon="-1.57167">
        <ele>9.27</ele>
        <time>2021-07-05T12:39:08Z</time>
      </trkpt>
      <trkpt lat="43.46533" lon="-1.57167">
        <ele>9.75</ele>
        <time>2021-07-05T12:39:09Z</time>
      </trkpt>
      <trkpt lat="43.46528" lon="-1.57171">
        <ele>9.27</ele>
        <time>2021-07-05T12:39:10Z</time>
      </trkpt>
      <trkpt lat="43.46528" lon="-1.57171">
        <ele>8.79</ele>
        <time>2021-07-05T12:39:11Z</time>
      </trkpt>
      <trkpt lat="43.46528" lon="-1.57175">
        <ele>8.79</ele>
        <time>2021-07-05T12:39:12Z</time>
      </trkpt>
      <trkpt lat="43.46528" lon="-1.57179">
        <ele>8.79</ele>
        <time>2021-07-05T12:39:13Z</time>
      </trkpt>
      <trkpt lat="43.46528" lon="-1.57183">
        <ele>8.79</ele>
        <time>2021-07-05T12:39:14Z</time>
      </trkpt>
      <trkpt lat="43.46527" lon="-1.57185">
        <ele>9.27</ele>
        <time>2021-07-05T12:39:15Z</time>
      </trkpt>
      <trkpt lat="43.46524" lon="-1.57187">
        <ele>9.27</ele>
        <time>2021-07-05T12:39:16Z</time>
      </trkpt>
      <trkpt lat="43.46521" lon="-1.57188">
        <ele>9.27</ele>
        <time>2021-07-05T12:39:17Z</time>
      </trkpt>
      <trkpt lat="43.46515" lon="-1.57186">
        <ele>10.23</ele>
        <time>2021-07-05T12:39:18Z</time>
      </trkpt>
      <trkpt lat="43.46515" lon="-1.57186">
        <ele>10.71</ele>
        <time>2021-07-05T12:39:19Z</time>
      </trkpt>
      <trkpt lat="43.46512" lon="-1.57182">
        <ele>13.12</ele>
        <time>2021-07-05T12:39:20Z</time>
      </trkpt>
      <trkpt lat="43.46509" lon="-1.57178">
        <ele>13.12</ele>
        <time>2021-07-05T12:39:21Z</time>
      </trkpt>
      <trkpt lat="43.46508" lon="-1.57162">
        <ele>13.6</ele>
        <time>2021-07-05T12:39:22Z</time>
      </trkpt>
      <trkpt lat="43.46504" lon="-1.57157">
        <ele>14.08</ele>
        <time>2021-07-05T12:39:23Z</time>
      </trkpt>
      <trkpt lat="43.46499" lon="-1.57152">
        <ele>14.56</ele>
        <time>2021-07-05T12:39:24Z</time>
      </trkpt>
      <trkpt lat="43.46493" lon="-1.57146">
        <ele>15.52</ele>
        <time>2021-07-05T12:39:25Z</time>
      </trkpt>
      <trkpt lat="43.46425" lon="-1.57079">
        <ele>19.36</ele>
        <time>2021-07-05T12:39:35Z</time>
      </trkpt>
      <trkpt lat="43.46415" lon="-1.57074">
        <ele>19.36</ele>
        <time>2021-07-05T12:39:36Z</time>
      </trkpt>
      <trkpt lat="43.46405" lon="-1.57069">
        <ele>20.32</ele>
        <time>2021-07-05T12:39:37Z</time>
      </trkpt>
      <trkpt lat="43.46394" lon="-1.57067">
        <ele>20.81</ele>
        <time>2021-07-05T12:39:38Z</time>
      </trkpt>
      <trkpt lat="43.46384" lon="-1.57066">
        <ele>21.29</ele>
        <time>2021-07-05T12:39:39Z</time>
      </trkpt>
      <trkpt lat="43.46281" lon="-1.5707">
        <ele>21.29</ele>
        <time>2021-07-05T12:39:50Z</time>
      </trkpt>
      <trkpt lat="43.46245" lon="-1.57086">
        <ele>21.29</ele>
        <time>2021-07-05T12:39:59Z</time>
      </trkpt>
      <trkpt lat="43.46244" lon="-1.57099">
        <ele>21.77</ele>
        <time>2021-07-05T12:40:02Z</time>
      </trkpt>
      <trkpt lat="43.46241" lon="-1.57107">
        <ele>21.77</ele>
        <time>2021-07-05T12:40:03Z</time>
      </trkpt>
      <trkpt lat="43.46233" lon="-1.57115">
        <ele>21.77</ele>
        <time>2021-07-05T12:40:04Z</time>
      </trkpt>
      <trkpt lat="43.46229" lon="-1.57116">
        <ele>20.81</ele>
        <time>2021-07-05T12:40:05Z</time>
      </trkpt>
      <trkpt lat="43.46222" lon="-1.57114">
        <ele>20.32</ele>
        <time>2021-07-05T12:40:06Z</time>
      </trkpt>
      <trkpt lat="43.46222" lon="-1.57114">
        <ele>19.84</ele>
        <time>2021-07-05T12:40:07Z</time>
      </trkpt>
      <trkpt lat="43.46219" lon="-1.57111">
        <ele>19.84</ele>
        <time>2021-07-05T12:40:08Z</time>
      </trkpt>
      <trkpt lat="43.46215" lon="-1.57108">
        <ele>19.84</ele>
        <time>2021-07-05T12:40:09Z</time>
      </trkpt>
      <trkpt lat="43.4621" lon="-1.57104">
        <ele>19.84</ele>
        <time>2021-07-05T12:40:10Z</time>
      </trkpt>
      <trkpt lat="43.46208" lon="-1.57099">
        <ele>19.84</ele>
        <time>2021-07-05T12:40:11Z</time>
      </trkpt>
      <trkpt lat="43.46207" lon="-1.5709">
        <ele>19.84</ele>
        <time>2021-07-05T12:40:12Z</time>
      </trkpt>
      <trkpt lat="43.46207" lon="-1.5709">
        <ele>19.84</ele>
        <time>2021-07-05T12:40:13Z</time>
      </trkpt>
      <trkpt lat="43.46207" lon="-1.5709">
        <ele>19.84</ele>
        <time>2021-07-05T12:40:14Z</time>
      </trkpt>
      <trkpt lat="43.46206" lon="-1.57068">
        <ele>19.84</ele>
        <time>2021-07-05T12:40:15Z</time>
      </trkpt>
      <trkpt lat="43.46202" lon="-1.57065">
        <ele>19.84</ele>
        <time>2021-07-05T12:40:16Z</time>
      </trkpt>
      <trkpt lat="43.46198" lon="-1.57061">
        <ele>19.36</ele>
        <time>2021-07-05T12:40:17Z</time>
      </trkpt>
      <trkpt lat="43.46186" lon="-1.57056">
        <ele>19.36</ele>
        <time>2021-07-05T12:40:18Z</time>
      </trkpt>
      <trkpt lat="43.46186" lon="-1.57056">
        <ele>18.88</ele>
        <time>2021-07-05T12:40:19Z</time>
      </trkpt>
      <trkpt lat="43.46174" lon="-1.57058">
        <ele>18.88</ele>
        <time>2021-07-05T12:40:20Z</time>
      </trkpt>
      <trkpt lat="43.46174" lon="-1.57058">
        <ele>18.4</ele>
        <time>2021-07-05T12:40:21Z</time>
      </trkpt>
      <trkpt lat="43.46167" lon="-1.57059">
        <ele>17.92</ele>
        <time>2021-07-05T12:40:22Z</time>
      </trkpt>
      <trkpt lat="43.4616" lon="-1.5706">
        <ele>17.44</ele>
        <time>2021-07-05T12:40:23Z</time>
      </trkpt>
      <trkpt lat="43.46153" lon="-1.57061">
        <ele>16.96</ele>
        <time>2021-07-05T12:40:24Z</time>
      </trkpt>
      <trkpt lat="43.46146" lon="-1.57063">
        <ele>16.48</ele>
        <time>2021-07-05T12:40:25Z</time>
      </trkpt>
      <trkpt lat="43.46052" lon="-1.57123">
        <ele>10.23</ele>
        <time>2021-07-05T12:40:36Z</time>
      </trkpt>
      <trkpt lat="43.45905" lon="-1.57215">
        <ele>20.81</ele>
        <time>2021-07-05T12:40:50Z</time>
      </trkpt>
      <trkpt lat="43.45853" lon="-1.57239">
        <ele>25.13</ele>
        <time>2021-07-05T12:40:56Z</time>
      </trkpt>
      <trkpt lat="43.45847" lon="-1.57241">
        <ele>25.13</ele>
        <time>2021-07-05T12:40:57Z</time>
      </trkpt>
      <trkpt lat="43.45833" lon="-1.57259">
        <ele>26.57</ele>
        <time>2021-07-05T12:40:59Z</time>
      </trkpt>
      <trkpt lat="43.45827" lon="-1.57261">
        <ele>26.57</ele>
        <time>2021-07-05T12:41:00Z</time>
      </trkpt>
      <trkpt lat="43.45819" lon="-1.57259">
        <ele>26.57</ele>
        <time>2021-07-05T12:41:01Z</time>
      </trkpt>
      <trkpt lat="43.45815" lon="-1.57253">
        <ele>26.09</ele>
        <time>2021-07-05T12:41:02Z</time>
      </trkpt>
      <trkpt lat="43.45806" lon="-1.57247">
        <ele>26.09</ele>
        <time>2021-07-05T12:41:03Z</time>
      </trkpt>
      <trkpt lat="43.45806" lon="-1.57247">
        <ele>26.09</ele>
        <time>2021-07-05T12:41:04Z</time>
      </trkpt>
      <trkpt lat="43.45686" lon="-1.57235">
        <ele>28.02</ele>
        <time>2021-07-05T12:41:15Z</time>
      </trkpt>
      <trkpt lat="43.45676" lon="-1.57236">
        <ele>28.02</ele>
        <time>2021-07-05T12:41:16Z</time>
      </trkpt>
      <trkpt lat="43.45676" lon="-1.57236">
        <ele>28.98</ele>
        <time>2021-07-05T12:41:17Z</time>
      </trkpt>
      <trkpt lat="43.45667" lon="-1.5724">
        <ele>29.94</ele>
        <time>2021-07-05T12:41:18Z</time>
      </trkpt>
      <trkpt lat="43.45657" lon="-1.57244">
        <ele>30.42</ele>
        <time>2021-07-05T12:41:19Z</time>
      </trkpt>
      <trkpt lat="43.45647" lon="-1.5725">
        <ele>30.42</ele>
        <time>2021-07-05T12:41:20Z</time>
      </trkpt>
      <trkpt lat="43.45568" lon="-1.57318">
        <ele>35.71</ele>
        <time>2021-07-05T12:41:29Z</time>
      </trkpt>
      <trkpt lat="43.45548" lon="-1.5733">
        <ele>33.78</ele>
        <time>2021-07-05T12:41:30Z</time>
      </trkpt>
      <trkpt lat="43.45548" lon="-1.5733">
        <ele>32.82</ele>
        <time>2021-07-05T12:41:31Z</time>
      </trkpt>
      <trkpt lat="43.45537" lon="-1.57332">
        <ele>30.42</ele>
        <time>2021-07-05T12:41:32Z</time>
      </trkpt>
      <trkpt lat="43.45525" lon="-1.57335">
        <ele>29.46</ele>
        <time>2021-07-05T12:41:33Z</time>
      </trkpt>
      <trkpt lat="43.45427" lon="-1.57354">
        <ele>35.23</ele>
        <time>2021-07-05T12:41:42Z</time>
      </trkpt>
      <trkpt lat="43.45353" lon="-1.57375">
        <ele>36.67</ele>
        <time>2021-07-05T12:41:51Z</time>
      </trkpt>
      <trkpt lat="43.45199" lon="-1.57399">
        <ele>50.13</ele>
        <time>2021-07-05T12:42:04Z</time>
      </trkpt>
      <trkpt lat="43.45199" lon="-1.57399">
        <ele>49.65</ele>
        <time>2021-07-05T12:42:05Z</time>
      </trkpt>
      <trkpt lat="43.45108" lon="-1.57451">
        <ele>53.01</ele>
        <time>2021-07-05T12:42:14Z</time>
      </trkpt>
      <trkpt lat="43.45103" lon="-1.57456">
        <ele>53.01</ele>
        <time>2021-07-05T12:42:15Z</time>
      </trkpt>
      <trkpt lat="43.45093" lon="-1.57461">
        <ele>53.01</ele>
        <time>2021-07-05T12:42:16Z</time>
      </trkpt>
      <trkpt lat="43.45083" lon="-1.57465">
        <ele>53.01</ele>
        <time>2021-07-05T12:42:18Z</time>
      </trkpt>
      <trkpt lat="43.45083" lon="-1.57465">
        <ele>53.49</ele>
        <time>2021-07-05T12:42:19Z</time>
      </trkpt>
      <trkpt lat="43.45075" lon="-1.57473">
        <ele>53.97</ele>
        <time>2021-07-05T12:42:20Z</time>
      </trkpt>
      <trkpt lat="43.45075" lon="-1.57473">
        <ele>54.93</ele>
        <time>2021-07-05T12:42:21Z</time>
      </trkpt>
      <trkpt lat="43.45071" lon="-1.57478">
        <ele>55.41</ele>
        <time>2021-07-05T12:42:22Z</time>
      </trkpt>
      <trkpt lat="43.45052" lon="-1.575">
        <ele>56.86</ele>
        <time>2021-07-05T12:42:27Z</time>
      </trkpt>
      <trkpt lat="43.45048" lon="-1.57503">
        <ele>56.86</ele>
        <time>2021-07-05T12:42:28Z</time>
      </trkpt>
      <trkpt lat="43.45045" lon="-1.57506">
        <ele>57.34</ele>
        <time>2021-07-05T12:42:29Z</time>
      </trkpt>
      <trkpt lat="43.45047" lon="-1.57501">
        <ele>57.82</ele>
        <time>2021-07-05T12:42:30Z</time>
      </trkpt>
      <trkpt lat="43.45044" lon="-1.57495">
        <ele>57.82</ele>
        <time>2021-07-05T12:42:31Z</time>
      </trkpt>
      <trkpt lat="43.45044" lon="-1.57495">
        <ele>57.82</ele>
        <time>2021-07-05T12:42:32Z</time>
      </trkpt>
      <trkpt lat="43.45046" lon="-1.57505">
        <ele>57.82</ele>
        <time>2021-07-05T12:42:33Z</time>
      </trkpt>
      <trkpt lat="43.45048" lon="-1.57503">
        <ele>57.34</ele>
        <time>2021-07-05T12:42:34Z</time>
      </trkpt>
      <trkpt lat="43.4505" lon="-1.57501">
        <ele>56.86</ele>
        <time>2021-07-05T12:42:35Z</time>
      </trkpt>
      <trkpt lat="43.45051" lon="-1.575">
        <ele>56.37</ele>
        <time>2021-07-05T12:42:36Z</time>
      </trkpt>
      <trkpt lat="43.45045" lon="-1.57496">
        <ele>56.37</ele>
        <time>2021-07-05T12:42:37Z</time>
      </trkpt>
      <trkpt lat="43.45055" lon="-1.57496">
        <ele>56.86</ele>
        <time>2021-07-05T12:42:40Z</time>
      </trkpt>
      <trkpt lat="43.45055" lon="-1.57496">
        <ele>56.37</ele>
        <time>2021-07-05T12:42:41Z</time>
      </trkpt>
      <trkpt lat="43.45057" lon="-1.57494">
        <ele>56.37</ele>
        <time>2021-07-05T12:42:42Z</time>
      </trkpt>
      <trkpt lat="43.4506" lon="-1.5749">
        <ele>56.37</ele>
        <time>2021-07-05T12:42:43Z</time>
      </trkpt>
      <trkpt lat="43.45063" lon="-1.57487">
        <ele>56.37</ele>
        <time>2021-07-05T12:42:44Z</time>
      </trkpt>
      <trkpt lat="43.45079" lon="-1.57469">
        <ele>55.89</ele>
        <time>2021-07-05T12:42:48Z</time>
      </trkpt>
      <trkpt lat="43.45082" lon="-1.57465">
        <ele>55.41</ele>
        <time>2021-07-05T12:42:49Z</time>
      </trkpt>
      <trkpt lat="43.45086" lon="-1.57464">
        <ele>55.41</ele>
        <time>2021-07-05T12:42:50Z</time>
      </trkpt>
      <trkpt lat="43.45089" lon="-1.57462">
        <ele>55.41</ele>
        <time>2021-07-05T12:42:51Z</time>
      </trkpt>
      <trkpt lat="43.45092" lon="-1.57461">
        <ele>55.41</ele>
        <time>2021-07-05T12:42:52Z</time>
      </trkpt>
      <trkpt lat="43.45093" lon="-1.57461">
        <ele>54.93</ele>
        <time>2021-07-05T12:43:11Z</time>
      </trkpt>
      <trkpt lat="43.45093" lon="-1.57461">
        <ele>54.45</ele>
        <time>2021-07-05T12:43:19Z</time>
      </trkpt>
      <trkpt lat="43.45096" lon="-1.5746">
        <ele>54.45</ele>
        <time>2021-07-05T12:43:20Z</time>
      </trkpt>
      <trkpt lat="43.45096" lon="-1.57465">
        <ele>53.97</ele>
        <time>2021-07-05T12:43:22Z</time>
      </trkpt>
      <trkpt lat="43.45093" lon="-1.5747">
        <ele>54.45</ele>
        <time>2021-07-05T12:43:23Z</time>
      </trkpt>
      <trkpt lat="43.4509" lon="-1.57475">
        <ele>54.93</ele>
        <time>2021-07-05T12:43:24Z</time>
      </trkpt>
      <trkpt lat="43.45082" lon="-1.5749">
        <ele>54.93</ele>
        <time>2021-07-05T12:43:25Z</time>
      </trkpt>
      <trkpt lat="43.45082" lon="-1.5749">
        <ele>55.41</ele>
        <time>2021-07-05T12:43:26Z</time>
      </trkpt>
      <trkpt lat="43.45074" lon="-1.5751">
        <ele>56.37</ele>
        <time>2021-07-05T12:43:28Z</time>
      </trkpt>
      <trkpt lat="43.45069" lon="-1.57524">
        <ele>57.34</ele>
        <time>2021-07-05T12:43:29Z</time>
      </trkpt>
      <trkpt lat="43.45026" lon="-1.5766">
        <ele>60.22</ele>
        <time>2021-07-05T12:43:37Z</time>
      </trkpt>
      <trkpt lat="43.4496" lon="-1.57831">
        <ele>65.99</ele>
        <time>2021-07-05T12:43:49Z</time>
      </trkpt>
      <trkpt lat="43.44932" lon="-1.5796">
        <ele>73.2</ele>
        <time>2021-07-05T12:43:59Z</time>
      </trkpt>
      <trkpt lat="43.44921" lon="-1.57986">
        <ele>74.64</ele>
        <time>2021-07-05T12:44:00Z</time>
      </trkpt>
      <trkpt lat="43.44914" lon="-1.57998">
        <ele>75.6</ele>
        <time>2021-07-05T12:44:01Z</time>
      </trkpt>
      <trkpt lat="43.44914" lon="-1.57998">
        <ele>76.08</ele>
        <time>2021-07-05T12:44:02Z</time>
      </trkpt>
      <trkpt lat="43.44907" lon="-1.58009">
        <ele>77.04</ele>
        <time>2021-07-05T12:44:03Z</time>
      </trkpt>
      <trkpt lat="43.44899" lon="-1.58019">
        <ele>78</ele>
        <time>2021-07-05T12:44:04Z</time>
      </trkpt>
      <trkpt lat="43.44892" lon="-1.58028">
        <ele>78.97</ele>
        <time>2021-07-05T12:44:05Z</time>
      </trkpt>
      <trkpt lat="43.44761" lon="-1.58147">
        <ele>77.52</ele>
        <time>2021-07-05T12:44:21Z</time>
      </trkpt>
      <trkpt lat="43.44662" lon="-1.58237">
        <ele>75.6</ele>
        <time>2021-07-05T12:44:36Z</time>
      </trkpt>
      <trkpt lat="43.44626" lon="-1.58251">
        <ele>73.68</ele>
        <time>2021-07-05T12:44:48Z</time>
      </trkpt>
      <trkpt lat="43.44622" lon="-1.58252">
        <ele>74.16</ele>
        <time>2021-07-05T12:44:50Z</time>
      </trkpt>
      <trkpt lat="43.44616" lon="-1.58257">
        <ele>74.16</ele>
        <time>2021-07-05T12:44:51Z</time>
      </trkpt>
      <trkpt lat="43.44612" lon="-1.58262">
        <ele>74.16</ele>
        <time>2021-07-05T12:44:52Z</time>
      </trkpt>
      <trkpt lat="43.44564" lon="-1.58322">
        <ele>75.6</ele>
        <time>2021-07-05T12:45:01Z</time>
      </trkpt>
      <trkpt lat="43.4445" lon="-1.58428">
        <ele>76.08</ele>
        <time>2021-07-05T12:45:16Z</time>
      </trkpt>
      <trkpt lat="43.44342" lon="-1.58515">
        <ele>75.6</ele>
        <time>2021-07-05T12:45:30Z</time>
      </trkpt>
      <trkpt lat="43.44331" lon="-1.58522">
        <ele>75.12</ele>
        <time>2021-07-05T12:45:32Z</time>
      </trkpt>
      <trkpt lat="43.44326" lon="-1.58525">
        <ele>75.12</ele>
        <time>2021-07-05T12:45:33Z</time>
      </trkpt>
      <trkpt lat="43.4432" lon="-1.58541">
        <ele>74.64</ele>
        <time>2021-07-05T12:45:35Z</time>
      </trkpt>
      <trkpt lat="43.44316" lon="-1.58546">
        <ele>73.68</ele>
        <time>2021-07-05T12:45:36Z</time>
      </trkpt>
      <trkpt lat="43.44308" lon="-1.58549">
        <ele>73.2</ele>
        <time>2021-07-05T12:45:37Z</time>
      </trkpt>
      <trkpt lat="43.44302" lon="-1.58547">
        <ele>72.24</ele>
        <time>2021-07-05T12:45:38Z</time>
      </trkpt>
      <trkpt lat="43.44301" lon="-1.58546">
        <ele>71.27</ele>
        <time>2021-07-05T12:45:39Z</time>
      </trkpt>
      <trkpt lat="43.44292" lon="-1.58531">
        <ele>70.79</ele>
        <time>2021-07-05T12:45:40Z</time>
      </trkpt>
      <trkpt lat="43.44285" lon="-1.5853">
        <ele>70.31</ele>
        <time>2021-07-05T12:45:41Z</time>
      </trkpt>
      <trkpt lat="43.44278" lon="-1.58529">
        <ele>69.83</ele>
        <time>2021-07-05T12:45:42Z</time>
      </trkpt>
      <trkpt lat="43.44236" lon="-1.58531">
        <ele>67.43</ele>
        <time>2021-07-05T12:45:47Z</time>
      </trkpt>
      <trkpt lat="43.44227" lon="-1.58533">
        <ele>66.95</ele>
        <time>2021-07-05T12:45:48Z</time>
      </trkpt>
      <trkpt lat="43.44219" lon="-1.58535">
        <ele>66.47</ele>
        <time>2021-07-05T12:45:49Z</time>
      </trkpt>
      <trkpt lat="43.44211" lon="-1.58537">
        <ele>65.99</ele>
        <time>2021-07-05T12:45:50Z</time>
      </trkpt>
      <trkpt lat="43.44205" lon="-1.58544">
        <ele>65.51</ele>
        <time>2021-07-05T12:45:51Z</time>
      </trkpt>
      <trkpt lat="43.44199" lon="-1.58553">
        <ele>65.03</ele>
        <time>2021-07-05T12:45:52Z</time>
      </trkpt>
      <trkpt lat="43.44193" lon="-1.58563">
        <ele>64.55</ele>
        <time>2021-07-05T12:45:53Z</time>
      </trkpt>
      <trkpt lat="43.44188" lon="-1.58574">
        <ele>65.03</ele>
        <time>2021-07-05T12:45:54Z</time>
      </trkpt>
      <trkpt lat="43.44184" lon="-1.58586">
        <ele>64.55</ele>
        <time>2021-07-05T12:45:55Z</time>
      </trkpt>
      <trkpt lat="43.44165" lon="-1.58653">
        <ele>62.14</ele>
        <time>2021-07-05T12:46:00Z</time>
      </trkpt>
      <trkpt lat="43.44161" lon="-1.58666">
        <ele>62.62</ele>
        <time>2021-07-05T12:46:01Z</time>
      </trkpt>
      <trkpt lat="43.44156" lon="-1.58682">
        <ele>62.14</ele>
        <time>2021-07-05T12:46:02Z</time>
      </trkpt>
      <trkpt lat="43.44138" lon="-1.58702">
        <ele>61.18</ele>
        <time>2021-07-05T12:46:03Z</time>
      </trkpt>
      <trkpt lat="43.44127" lon="-1.58709">
        <ele>59.74</ele>
        <time>2021-07-05T12:46:04Z</time>
      </trkpt>
      <trkpt lat="43.44114" lon="-1.58712">
        <ele>57.34</ele>
        <time>2021-07-05T12:46:05Z</time>
      </trkpt>
      <trkpt lat="43.44114" lon="-1.58712">
        <ele>56.37</ele>
        <time>2021-07-05T12:46:06Z</time>
      </trkpt>
      <trkpt lat="43.44101" lon="-1.58715">
        <ele>54.45</ele>
        <time>2021-07-05T12:46:07Z</time>
      </trkpt>
      <trkpt lat="43.43976" lon="-1.5871">
        <ele>48.68</ele>
        <time>2021-07-05T12:46:19Z</time>
      </trkpt>
      <trkpt lat="43.43929" lon="-1.58726">
        <ele>47.24</ele>
        <time>2021-07-05T12:46:28Z</time>
      </trkpt>
      <trkpt lat="43.43921" lon="-1.58734">
        <ele>47.72</ele>
        <time>2021-07-05T12:46:41Z</time>
      </trkpt>
      <trkpt lat="43.43907" lon="-1.58757">
        <ele>46.28</ele>
        <time>2021-07-05T12:47:21Z</time>
      </trkpt>
      <trkpt lat="43.43882" lon="-1.58838">
        <ele>42.92</ele>
        <time>2021-07-05T12:47:34Z</time>
      </trkpt>
      <trkpt lat="43.43874" lon="-1.58862">
        <ele>41.95</ele>
        <time>2021-07-05T12:47:38Z</time>
      </trkpt>
      <trkpt lat="43.43871" lon="-1.58867">
        <ele>41.95</ele>
        <time>2021-07-05T12:47:39Z</time>
      </trkpt>
      <trkpt lat="43.43867" lon="-1.58872">
        <ele>41.47</ele>
        <time>2021-07-05T12:47:40Z</time>
      </trkpt>
      <trkpt lat="43.43863" lon="-1.58877">
        <ele>41.47</ele>
        <time>2021-07-05T12:47:41Z</time>
      </trkpt>
      <trkpt lat="43.43858" lon="-1.58883">
        <ele>40.99</ele>
        <time>2021-07-05T12:47:42Z</time>
      </trkpt>
      <trkpt lat="43.43811" lon="-1.58936">
        <ele>37.63</ele>
        <time>2021-07-05T12:47:52Z</time>
      </trkpt>
      <trkpt lat="43.43796" lon="-1.58953">
        <ele>36.19</ele>
        <time>2021-07-05T12:48:18Z</time>
      </trkpt>
      <trkpt lat="43.43782" lon="-1.58969">
        <ele>35.23</ele>
        <time>2021-07-05T12:48:21Z</time>
      </trkpt>
      <trkpt lat="43.43776" lon="-1.58984">
        <ele>34.74</ele>
        <time>2021-07-05T12:48:22Z</time>
      </trkpt>
      <trkpt lat="43.43776" lon="-1.58984">
        <ele>34.26</ele>
        <time>2021-07-05T12:48:23Z</time>
      </trkpt>
      <trkpt lat="43.43773" lon="-1.58993">
        <ele>34.26</ele>
        <time>2021-07-05T12:48:24Z</time>
      </trkpt>
      <trkpt lat="43.43769" lon="-1.59001">
        <ele>33.78</ele>
        <time>2021-07-05T12:48:25Z</time>
      </trkpt>
      <trkpt lat="43.43767" lon="-1.59021">
        <ele>33.3</ele>
        <time>2021-07-05T12:48:26Z</time>
      </trkpt>
      <trkpt lat="43.43767" lon="-1.59021">
        <ele>32.82</ele>
        <time>2021-07-05T12:48:27Z</time>
      </trkpt>
      <trkpt lat="43.43767" lon="-1.59045">
        <ele>32.34</ele>
        <time>2021-07-05T12:48:28Z</time>
      </trkpt>
      <trkpt lat="43.43776" lon="-1.59147">
        <ele>30.42</ele>
        <time>2021-07-05T12:48:38Z</time>
      </trkpt>
      <trkpt lat="43.43776" lon="-1.59153">
        <ele>30.42</ele>
        <time>2021-07-05T12:48:39Z</time>
      </trkpt>
      <trkpt lat="43.43756" lon="-1.59178">
        <ele>29.46</ele>
        <time>2021-07-05T12:48:43Z</time>
      </trkpt>
      <trkpt lat="43.4375" lon="-1.59186">
        <ele>28.5</ele>
        <time>2021-07-05T12:48:44Z</time>
      </trkpt>
      <trkpt lat="43.43626" lon="-1.59295">
        <ele>19.36</ele>
        <time>2021-07-05T12:48:57Z</time>
      </trkpt>
      <trkpt lat="43.43425" lon="-1.59472">
        <ele>8.79</ele>
        <time>2021-07-05T12:49:17Z</time>
      </trkpt>
      <trkpt lat="43.43403" lon="-1.59492">
        <ele>8.31</ele>
        <time>2021-07-05T12:49:23Z</time>
      </trkpt>
      <trkpt lat="43.43401" lon="-1.59494">
        <ele>8.79</ele>
        <time>2021-07-05T12:49:38Z</time>
      </trkpt>
      <trkpt lat="43.43382" lon="-1.59511">
        <ele>7.35</ele>
        <time>2021-07-05T12:49:53Z</time>
      </trkpt>
      <trkpt lat="43.43319" lon="-1.59564">
        <ele>5.42</ele>
        <time>2021-07-05T12:50:05Z</time>
      </trkpt>
      <trkpt lat="43.43216" lon="-1.59665">
        <ele>5.91</ele>
        <time>2021-07-05T12:50:23Z</time>
      </trkpt>
      <trkpt lat="43.43156" lon="-1.59752">
        <ele>5.91</ele>
        <time>2021-07-05T12:50:37Z</time>
      </trkpt>
      <trkpt lat="43.43153" lon="-1.59758">
        <ele>5.91</ele>
        <time>2021-07-05T12:50:38Z</time>
      </trkpt>
      <trkpt lat="43.43148" lon="-1.59771">
        <ele>5.91</ele>
        <time>2021-07-05T12:50:39Z</time>
      </trkpt>
      <trkpt lat="43.43149" lon="-1.59776">
        <ele>5.91</ele>
        <time>2021-07-05T12:50:40Z</time>
      </trkpt>
      <trkpt lat="43.43149" lon="-1.59776">
        <ele>5.91</ele>
        <time>2021-07-05T12:50:41Z</time>
      </trkpt>
      <trkpt lat="43.43151" lon="-1.59782">
        <ele>5.91</ele>
        <time>2021-07-05T12:50:42Z</time>
      </trkpt>
      <trkpt lat="43.43149" lon="-1.59787">
        <ele>5.91</ele>
        <time>2021-07-05T12:50:43Z</time>
      </trkpt>
      <trkpt lat="43.43147" lon="-1.59793">
        <ele>5.91</ele>
        <time>2021-07-05T12:50:44Z</time>
      </trkpt>
      <trkpt lat="43.43143" lon="-1.59796">
        <ele>5.91</ele>
        <time>2021-07-05T12:50:45Z</time>
      </trkpt>
      <trkpt lat="43.43138" lon="-1.59797">
        <ele>5.91</ele>
        <time>2021-07-05T12:50:46Z</time>
      </trkpt>
      <trkpt lat="43.43124" lon="-1.59801">
        <ele>5.91</ele>
        <time>2021-07-05T12:50:48Z</time>
      </trkpt>
      <trkpt lat="43.4312" lon="-1.59807">
        <ele>5.91</ele>
        <time>2021-07-05T12:50:49Z</time>
      </trkpt>
      <trkpt lat="43.43115" lon="-1.59813">
        <ele>5.91</ele>
        <time>2021-07-05T12:50:50Z</time>
      </trkpt>
      <trkpt lat="43.43048" lon="-1.59908">
        <ele>8.31</ele>
        <time>2021-07-05T12:51:00Z</time>
      </trkpt>
      <trkpt lat="43.42878" lon="-1.60116">
        <ele>18.88</ele>
        <time>2021-07-05T12:51:19Z</time>
      </trkpt>
      <trkpt lat="43.42768" lon="-1.60258">
        <ele>23.21</ele>
        <time>2021-07-05T12:51:32Z</time>
      </trkpt>
      <trkpt lat="43.42762" lon="-1.6027">
        <ele>23.21</ele>
        <time>2021-07-05T12:51:33Z</time>
      </trkpt>
      <trkpt lat="43.42759" lon="-1.60283">
        <ele>23.21</ele>
        <time>2021-07-05T12:51:34Z</time>
      </trkpt>
      <trkpt lat="43.4275" lon="-1.60335">
        <ele>25.61</ele>
        <time>2021-07-05T12:51:38Z</time>
      </trkpt>
      <trkpt lat="43.42745" lon="-1.60358">
        <ele>26.57</ele>
        <time>2021-07-05T12:51:39Z</time>
      </trkpt>
      <trkpt lat="43.42743" lon="-1.60366">
        <ele>28.02</ele>
        <time>2021-07-05T12:51:40Z</time>
      </trkpt>
      <trkpt lat="43.42743" lon="-1.60366">
        <ele>28.5</ele>
        <time>2021-07-05T12:51:41Z</time>
      </trkpt>
      <trkpt lat="43.42736" lon="-1.60374">
        <ele>28.98</ele>
        <time>2021-07-05T12:51:42Z</time>
      </trkpt>
      <trkpt lat="43.42722" lon="-1.60388">
        <ele>28.5</ele>
        <time>2021-07-05T12:51:43Z</time>
      </trkpt>
      <trkpt lat="43.42713" lon="-1.60392">
        <ele>28.98</ele>
        <time>2021-07-05T12:51:44Z</time>
      </trkpt>
      <trkpt lat="43.42713" lon="-1.60392">
        <ele>28.5</ele>
        <time>2021-07-05T12:51:45Z</time>
      </trkpt>
      <trkpt lat="43.42696" lon="-1.60388">
        <ele>28.98</ele>
        <time>2021-07-05T12:51:46Z</time>
      </trkpt>
      <trkpt lat="43.42696" lon="-1.60388">
        <ele>28.98</ele>
        <time>2021-07-05T12:51:47Z</time>
      </trkpt>
      <trkpt lat="43.42688" lon="-1.60383">
        <ele>29.46</ele>
        <time>2021-07-05T12:51:48Z</time>
      </trkpt>
      <trkpt lat="43.4266" lon="-1.60375">
        <ele>28.98</ele>
        <time>2021-07-05T12:51:50Z</time>
      </trkpt>
      <trkpt lat="43.4265" lon="-1.60375">
        <ele>28.98</ele>
        <time>2021-07-05T12:51:51Z</time>
      </trkpt>
      <trkpt lat="43.4265" lon="-1.60375">
        <ele>28.98</ele>
        <time>2021-07-05T12:51:52Z</time>
      </trkpt>
      <trkpt lat="43.42642" lon="-1.60377">
        <ele>29.46</ele>
        <time>2021-07-05T12:51:53Z</time>
      </trkpt>
      <trkpt lat="43.42626" lon="-1.60384">
        <ele>29.46</ele>
        <time>2021-07-05T12:51:54Z</time>
      </trkpt>
      <trkpt lat="43.42584" lon="-1.60401">
        <ele>28.98</ele>
        <time>2021-07-05T12:52:02Z</time>
      </trkpt>
      <trkpt lat="43.42531" lon="-1.60425">
        <ele>29.46</ele>
        <time>2021-07-05T12:52:15Z</time>
      </trkpt>
      <trkpt lat="43.42455" lon="-1.60461">
        <ele>31.38</ele>
        <time>2021-07-05T12:52:27Z</time>
      </trkpt>
      <trkpt lat="43.42455" lon="-1.60461">
        <ele>31.38</ele>
        <time>2021-07-05T12:52:50Z</time>
      </trkpt>
      <trkpt lat="43.42433" lon="-1.6047">
        <ele>32.34</ele>
        <time>2021-07-05T12:53:02Z</time>
      </trkpt>
      <trkpt lat="43.42339" lon="-1.60507">
        <ele>33.78</ele>
        <time>2021-07-05T12:53:14Z</time>
      </trkpt>
      <trkpt lat="43.42282" lon="-1.60516">
        <ele>35.23</ele>
        <time>2021-07-05T12:53:21Z</time>
      </trkpt>
      <trkpt lat="43.42274" lon="-1.60514">
        <ele>35.71</ele>
        <time>2021-07-05T12:53:22Z</time>
      </trkpt>
      <trkpt lat="43.42264" lon="-1.60511">
        <ele>36.67</ele>
        <time>2021-07-05T12:53:23Z</time>
      </trkpt>
      <trkpt lat="43.42195" lon="-1.60494">
        <ele>40.03</ele>
        <time>2021-07-05T12:53:29Z</time>
      </trkpt>
      <trkpt lat="43.42195" lon="-1.60494">
        <ele>40.03</ele>
        <time>2021-07-05T12:53:30Z</time>
      </trkpt>
      <trkpt lat="43.42175" lon="-1.60496">
        <ele>40.99</ele>
        <time>2021-07-05T12:53:31Z</time>
      </trkpt>
      <trkpt lat="43.42175" lon="-1.60496">
        <ele>42.44</ele>
        <time>2021-07-05T12:53:32Z</time>
      </trkpt>
      <trkpt lat="43.42165" lon="-1.60498">
        <ele>44.84</ele>
        <time>2021-07-05T12:53:33Z</time>
      </trkpt>
      <trkpt lat="43.42155" lon="-1.60505">
        <ele>46.28</ele>
        <time>2021-07-05T12:53:34Z</time>
      </trkpt>
      <trkpt lat="43.42147" lon="-1.60513">
        <ele>47.24</ele>
        <time>2021-07-05T12:53:35Z</time>
      </trkpt>
      <trkpt lat="43.42131" lon="-1.60531">
        <ele>46.76</ele>
        <time>2021-07-05T12:53:36Z</time>
      </trkpt>
      <trkpt lat="43.42131" lon="-1.60531">
        <ele>45.32</ele>
        <time>2021-07-05T12:53:37Z</time>
      </trkpt>
      <trkpt lat="43.42118" lon="-1.60553">
        <ele>45.32</ele>
        <time>2021-07-05T12:53:38Z</time>
      </trkpt>
      <trkpt lat="43.42113" lon="-1.60564">
        <ele>45.32</ele>
        <time>2021-07-05T12:53:39Z</time>
      </trkpt>
      <trkpt lat="43.42113" lon="-1.60564">
        <ele>45.8</ele>
        <time>2021-07-05T12:53:40Z</time>
      </trkpt>
      <trkpt lat="43.4211" lon="-1.60574">
        <ele>46.76</ele>
        <time>2021-07-05T12:53:41Z</time>
      </trkpt>
      <trkpt lat="43.42099" lon="-1.60607">
        <ele>48.68</ele>
        <time>2021-07-05T12:53:48Z</time>
      </trkpt>
      <trkpt lat="43.42092" lon="-1.60631">
        <ele>51.09</ele>
        <time>2021-07-05T12:53:57Z</time>
      </trkpt>
      <trkpt lat="43.42073" lon="-1.60676">
        <ele>54.45</ele>
        <time>2021-07-05T12:54:03Z</time>
      </trkpt>
      <trkpt lat="43.42063" lon="-1.60692">
        <ele>54.93</ele>
        <time>2021-07-05T12:54:04Z</time>
      </trkpt>
      <trkpt lat="43.42004" lon="-1.60735">
        <ele>52.53</ele>
        <time>2021-07-05T12:54:12Z</time>
      </trkpt>
      <trkpt lat="43.41994" lon="-1.60737">
        <ele>51.09</ele>
        <time>2021-07-05T12:54:13Z</time>
      </trkpt>
      <trkpt lat="43.41994" lon="-1.60737">
        <ele>49.65</ele>
        <time>2021-07-05T12:54:14Z</time>
      </trkpt>
      <trkpt lat="43.4194" lon="-1.60747">
        <ele>46.28</ele>
        <time>2021-07-05T12:54:22Z</time>
      </trkpt>
      <trkpt lat="43.41884" lon="-1.60756">
        <ele>42.44</ele>
        <time>2021-07-05T12:54:33Z</time>
      </trkpt>
      <trkpt lat="43.41861" lon="-1.60768">
        <ele>40.99</ele>
        <time>2021-07-05T12:54:36Z</time>
      </trkpt>
      <trkpt lat="43.41845" lon="-1.6078">
        <ele>41.95</ele>
        <time>2021-07-05T12:54:37Z</time>
      </trkpt>
      <trkpt lat="43.41845" lon="-1.6078">
        <ele>42.44</ele>
        <time>2021-07-05T12:54:38Z</time>
      </trkpt>
      <trkpt lat="43.41837" lon="-1.60789">
        <ele>42.92</ele>
        <time>2021-07-05T12:54:39Z</time>
      </trkpt>
      <trkpt lat="43.4182" lon="-1.60811">
        <ele>41.95</ele>
        <time>2021-07-05T12:54:40Z</time>
      </trkpt>
      <trkpt lat="43.41686" lon="-1.60992">
        <ele>28.02</ele>
        <time>2021-07-05T12:54:56Z</time>
      </trkpt>
      <trkpt lat="43.41546" lon="-1.61184">
        <ele>24.65</ele>
        <time>2021-07-05T12:55:10Z</time>
      </trkpt>
      <trkpt lat="43.41426" lon="-1.61349">
        <ele>35.23</ele>
        <time>2021-07-05T12:55:22Z</time>
      </trkpt>
      <trkpt lat="43.41331" lon="-1.615">
        <ele>41.95</ele>
        <time>2021-07-05T12:55:33Z</time>
      </trkpt>
      <trkpt lat="43.41262" lon="-1.61701">
        <ele>48.2</ele>
        <time>2021-07-05T12:55:46Z</time>
      </trkpt>
      <trkpt lat="43.41256" lon="-1.6172">
        <ele>48.2</ele>
        <time>2021-07-05T12:55:48Z</time>
      </trkpt>
      <trkpt lat="43.41253" lon="-1.61729">
        <ele>48.2</ele>
        <time>2021-07-05T12:55:49Z</time>
      </trkpt>
      <trkpt lat="43.41251" lon="-1.61754">
        <ele>49.16</ele>
        <time>2021-07-05T12:55:51Z</time>
      </trkpt>
      <trkpt lat="43.41253" lon="-1.61761">
        <ele>49.16</ele>
        <time>2021-07-05T12:55:52Z</time>
      </trkpt>
      <trkpt lat="43.41248" lon="-1.61777">
        <ele>49.65</ele>
        <time>2021-07-05T12:55:53Z</time>
      </trkpt>
      <trkpt lat="43.41197" lon="-1.61859">
        <ele>47.72</ele>
        <time>2021-07-05T12:56:02Z</time>
      </trkpt>
      <trkpt lat="43.4108" lon="-1.6206">
        <ele>41.47</ele>
        <time>2021-07-05T12:56:15Z</time>
      </trkpt>
      <trkpt lat="43.40936" lon="-1.62319">
        <ele>28.02</ele>
        <time>2021-07-05T12:56:32Z</time>
      </trkpt>
      <trkpt lat="43.40857" lon="-1.62457">
        <ele>22.25</ele>
        <time>2021-07-05T12:56:42Z</time>
      </trkpt>
      <trkpt lat="43.40749" lon="-1.62654">
        <ele>23.69</ele>
        <time>2021-07-05T12:56:55Z</time>
      </trkpt>
      <trkpt lat="43.40613" lon="-1.62886">
        <ele>11.19</ele>
        <time>2021-07-05T12:57:08Z</time>
      </trkpt>
      <trkpt lat="43.40398" lon="-1.6327">
        <ele>11.67</ele>
        <time>2021-07-05T12:57:28Z</time>
      </trkpt>
      <trkpt lat="43.40285" lon="-1.6347">
        <ele>15.52</ele>
        <time>2021-07-05T12:57:40Z</time>
      </trkpt>
      <trkpt lat="43.40259" lon="-1.63514">
        <ele>16</ele>
        <time>2021-07-05T12:57:46Z</time>
      </trkpt>
      <trkpt lat="43.4025" lon="-1.6353">
        <ele>16.96</ele>
        <time>2021-07-05T12:57:55Z</time>
      </trkpt>
      <trkpt lat="43.40235" lon="-1.63556">
        <ele>17.92</ele>
        <time>2021-07-05T12:58:04Z</time>
      </trkpt>
      <trkpt lat="43.4019" lon="-1.63635">
        <ele>20.32</ele>
        <time>2021-07-05T12:58:13Z</time>
      </trkpt>
      <trkpt lat="43.40166" lon="-1.63679">
        <ele>21.29</ele>
        <time>2021-07-05T12:58:22Z</time>
      </trkpt>
      <trkpt lat="43.40156" lon="-1.63696">
        <ele>22.25</ele>
        <time>2021-07-05T12:59:28Z</time>
      </trkpt>
      <trkpt lat="43.40114" lon="-1.63767">
        <ele>24.65</ele>
        <time>2021-07-05T12:59:36Z</time>
      </trkpt>
      <trkpt lat="43.40024" lon="-1.63927">
        <ele>28.5</ele>
        <time>2021-07-05T12:59:49Z</time>
      </trkpt>
      <trkpt lat="43.39985" lon="-1.63995">
        <ele>28.02</ele>
        <time>2021-07-05T12:59:59Z</time>
      </trkpt>
      <trkpt lat="43.39956" lon="-1.64039">
        <ele>27.05</ele>
        <time>2021-07-05T13:00:11Z</time>
      </trkpt>
      <trkpt lat="43.39953" lon="-1.64044">
        <ele>27.05</ele>
        <time>2021-07-05T13:00:12Z</time>
      </trkpt>
      <trkpt lat="43.39949" lon="-1.64067">
        <ele>26.57</ele>
        <time>2021-07-05T13:00:15Z</time>
      </trkpt>
      <trkpt lat="43.39946" lon="-1.64077">
        <ele>26.57</ele>
        <time>2021-07-05T13:00:16Z</time>
      </trkpt>
      <trkpt lat="43.39887" lon="-1.64169">
        <ele>25.61</ele>
        <time>2021-07-05T13:00:30Z</time>
      </trkpt>
      <trkpt lat="43.39818" lon="-1.64278">
        <ele>25.13</ele>
        <time>2021-07-05T13:00:43Z</time>
      </trkpt>
      <trkpt lat="43.3981" lon="-1.64283">
        <ele>24.17</ele>
        <time>2021-07-05T13:00:44Z</time>
      </trkpt>
      <trkpt lat="43.39802" lon="-1.64288">
        <ele>24.65</ele>
        <time>2021-07-05T13:00:45Z</time>
      </trkpt>
      <trkpt lat="43.39794" lon="-1.64291">
        <ele>24.65</ele>
        <time>2021-07-05T13:00:46Z</time>
      </trkpt>
      <trkpt lat="43.39786" lon="-1.64293">
        <ele>24.17</ele>
        <time>2021-07-05T13:00:47Z</time>
      </trkpt>
      <trkpt lat="43.39777" lon="-1.64294">
        <ele>23.69</ele>
        <time>2021-07-05T13:00:48Z</time>
      </trkpt>
      <trkpt lat="43.39769" lon="-1.64296">
        <ele>23.21</ele>
        <time>2021-07-05T13:00:49Z</time>
      </trkpt>
      <trkpt lat="43.39752" lon="-1.64299">
        <ele>22.73</ele>
        <time>2021-07-05T13:00:51Z</time>
      </trkpt>
      <trkpt lat="43.39744" lon="-1.64302">
        <ele>22.25</ele>
        <time>2021-07-05T13:00:52Z</time>
      </trkpt>
      <trkpt lat="43.39736" lon="-1.64306">
        <ele>21.29</ele>
        <time>2021-07-05T13:00:53Z</time>
      </trkpt>
      <trkpt lat="43.39723" lon="-1.64319">
        <ele>20.81</ele>
        <time>2021-07-05T13:00:54Z</time>
      </trkpt>
      <trkpt lat="43.39723" lon="-1.64319">
        <ele>20.32</ele>
        <time>2021-07-05T13:00:55Z</time>
      </trkpt>
      <trkpt lat="43.3972" lon="-1.64327">
        <ele>19.84</ele>
        <time>2021-07-05T13:00:56Z</time>
      </trkpt>
      <trkpt lat="43.39717" lon="-1.64335">
        <ele>19.84</ele>
        <time>2021-07-05T13:00:57Z</time>
      </trkpt>
      <trkpt lat="43.39716" lon="-1.64342">
        <ele>19.84</ele>
        <time>2021-07-05T13:00:58Z</time>
      </trkpt>
      <trkpt lat="43.39716" lon="-1.6435">
        <ele>20.32</ele>
        <time>2021-07-05T13:00:59Z</time>
      </trkpt>
      <trkpt lat="43.39717" lon="-1.64357">
        <ele>19.84</ele>
        <time>2021-07-05T13:01:00Z</time>
      </trkpt>
      <trkpt lat="43.39718" lon="-1.64364">
        <ele>20.32</ele>
        <time>2021-07-05T13:01:01Z</time>
      </trkpt>
      <trkpt lat="43.3972" lon="-1.64371">
        <ele>20.32</ele>
        <time>2021-07-05T13:01:02Z</time>
      </trkpt>
      <trkpt lat="43.39723" lon="-1.64391">
        <ele>20.81</ele>
        <time>2021-07-05T13:01:05Z</time>
      </trkpt>
      <trkpt lat="43.39723" lon="-1.64397">
        <ele>20.81</ele>
        <time>2021-07-05T13:01:06Z</time>
      </trkpt>
      <trkpt lat="43.39724" lon="-1.64404">
        <ele>20.81</ele>
        <time>2021-07-05T13:01:07Z</time>
      </trkpt>
      <trkpt lat="43.39723" lon="-1.64418">
        <ele>20.81</ele>
        <time>2021-07-05T13:01:09Z</time>
      </trkpt>
      <trkpt lat="43.39722" lon="-1.64426">
        <ele>20.81</ele>
        <time>2021-07-05T13:01:10Z</time>
      </trkpt>
      <trkpt lat="43.3973" lon="-1.64444">
        <ele>20.81</ele>
        <time>2021-07-05T13:01:12Z</time>
      </trkpt>
      <trkpt lat="43.39728" lon="-1.64451">
        <ele>20.81</ele>
        <time>2021-07-05T13:01:13Z</time>
      </trkpt>
      <trkpt lat="43.39726" lon="-1.64458">
        <ele>20.81</ele>
        <time>2021-07-05T13:01:14Z</time>
      </trkpt>
      <trkpt lat="43.39726" lon="-1.64458">
        <ele>20.81</ele>
        <time>2021-07-05T13:01:15Z</time>
      </trkpt>
      <trkpt lat="43.39713" lon="-1.64472">
        <ele>20.81</ele>
        <time>2021-07-05T13:01:16Z</time>
      </trkpt>
      <trkpt lat="43.39691" lon="-1.64513">
        <ele>20.32</ele>
        <time>2021-07-05T13:01:26Z</time>
      </trkpt>
      <trkpt lat="43.3965" lon="-1.64587">
        <ele>20.32</ele>
        <time>2021-07-05T13:01:39Z</time>
      </trkpt>
      <trkpt lat="43.39598" lon="-1.64674">
        <ele>20.32</ele>
        <time>2021-07-05T13:01:53Z</time>
      </trkpt>
      <trkpt lat="43.39535" lon="-1.64786">
        <ele>23.69</ele>
        <time>2021-07-05T13:02:05Z</time>
      </trkpt>
      <trkpt lat="43.39459" lon="-1.64923">
        <ele>25.13</ele>
        <time>2021-07-05T13:02:20Z</time>
      </trkpt>
      <trkpt lat="43.39435" lon="-1.64965">
        <ele>24.65</ele>
        <time>2021-07-05T13:02:30Z</time>
      </trkpt>
      <trkpt lat="43.39422" lon="-1.64988">
        <ele>24.65</ele>
        <time>2021-07-05T13:02:46Z</time>
      </trkpt>
      <trkpt lat="43.39376" lon="-1.65067">
        <ele>23.21</ele>
        <time>2021-07-05T13:02:59Z</time>
      </trkpt>
      <trkpt lat="43.39322" lon="-1.65158">
        <ele>24.17</ele>
        <time>2021-07-05T13:03:13Z</time>
      </trkpt>
      <trkpt lat="43.39253" lon="-1.65283">
        <ele>24.17</ele>
        <time>2021-07-05T13:03:29Z</time>
      </trkpt>
      <trkpt lat="43.39208" lon="-1.65392">
        <ele>23.21</ele>
        <time>2021-07-05T13:03:40Z</time>
      </trkpt>
      <trkpt lat="43.39185" lon="-1.65449">
        <ele>20.32</ele>
        <time>2021-07-05T13:03:47Z</time>
      </trkpt>
      <trkpt lat="43.39182" lon="-1.65456">
        <ele>19.36</ele>
        <time>2021-07-05T13:03:48Z</time>
      </trkpt>
      <trkpt lat="43.39167" lon="-1.65489">
        <ele>16.48</ele>
        <time>2021-07-05T13:03:55Z</time>
      </trkpt>
      <trkpt lat="43.39163" lon="-1.6549">
        <ele>16</ele>
        <time>2021-07-05T13:03:56Z</time>
      </trkpt>
      <trkpt lat="43.39161" lon="-1.65483">
        <ele>15.52</ele>
        <time>2021-07-05T13:03:57Z</time>
      </trkpt>
      <trkpt lat="43.3916" lon="-1.65477">
        <ele>16</ele>
        <time>2021-07-05T13:03:58Z</time>
      </trkpt>
      <trkpt lat="43.3916" lon="-1.65477">
        <ele>16</ele>
        <time>2021-07-05T13:03:59Z</time>
      </trkpt>
      <trkpt lat="43.39155" lon="-1.65468">
        <ele>16</ele>
        <time>2021-07-05T13:04:00Z</time>
      </trkpt>
      <trkpt lat="43.39146" lon="-1.65459">
        <ele>16</ele>
        <time>2021-07-05T13:04:01Z</time>
      </trkpt>
      <trkpt lat="43.39085" lon="-1.65416">
        <ele>16.96</ele>
        <time>2021-07-05T13:04:10Z</time>
      </trkpt>
      <trkpt lat="43.38977" lon="-1.65384">
        <ele>16.96</ele>
        <time>2021-07-05T13:04:22Z</time>
      </trkpt>
      <trkpt lat="43.38899" lon="-1.65367">
        <ele>16.96</ele>
        <time>2021-07-05T13:04:33Z</time>
      </trkpt>
      <trkpt lat="43.38892" lon="-1.6537">
        <ele>17.44</ele>
        <time>2021-07-05T13:04:36Z</time>
      </trkpt>
      <trkpt lat="43.38889" lon="-1.65373">
        <ele>17.44</ele>
        <time>2021-07-05T13:04:37Z</time>
      </trkpt>
      <trkpt lat="43.38846" lon="-1.65446">
        <ele>13.12</ele>
        <time>2021-07-05T13:04:47Z</time>
      </trkpt>
      <trkpt lat="43.3877" lon="-1.65574">
        <ele>6.39</ele>
        <time>2021-07-05T13:04:58Z</time>
      </trkpt>
      <trkpt lat="43.3877" lon="-1.65574">
        <ele>6.39</ele>
        <time>2021-07-05T13:04:59Z</time>
      </trkpt>
      <trkpt lat="43.3876" lon="-1.65599">
        <ele>6.39</ele>
        <time>2021-07-05T13:05:00Z</time>
      </trkpt>
      <trkpt lat="43.38725" lon="-1.65706">
        <ele>4.46</ele>
        <time>2021-07-05T13:05:11Z</time>
      </trkpt>
      <trkpt lat="43.38695" lon="-1.65796">
        <ele>3.98</ele>
        <time>2021-07-05T13:05:23Z</time>
      </trkpt>
      <trkpt lat="43.38694" lon="-1.65817">
        <ele>3.02</ele>
        <time>2021-07-05T13:05:32Z</time>
      </trkpt>
      <trkpt lat="43.38708" lon="-1.65844">
        <ele>2.54</ele>
        <time>2021-07-05T13:05:40Z</time>
      </trkpt>
      <trkpt lat="43.38709" lon="-1.65852">
        <ele>2.06</ele>
        <time>2021-07-05T13:05:42Z</time>
      </trkpt>
      <trkpt lat="43.38709" lon="-1.65854">
        <ele>1.58</ele>
        <time>2021-07-05T13:05:43Z</time>
      </trkpt>
      <trkpt lat="43.38707" lon="-1.65857">
        <ele>1.58</ele>
        <time>2021-07-05T13:05:44Z</time>
      </trkpt>
      <trkpt lat="43.38705" lon="-1.6586">
        <ele>1.1</ele>
        <time>2021-07-05T13:05:45Z</time>
      </trkpt>
      <trkpt lat="43.38703" lon="-1.65863">
        <ele>1.1</ele>
        <time>2021-07-05T13:05:46Z</time>
      </trkpt>
      <trkpt lat="43.38701" lon="-1.65864">
        <ele>1.1</ele>
        <time>2021-07-05T13:05:47Z</time>
      </trkpt>
      <trkpt lat="43.38698" lon="-1.65864">
        <ele>2.06</ele>
        <time>2021-07-05T13:05:48Z</time>
      </trkpt>
      <trkpt lat="43.38694" lon="-1.65864">
        <ele>2.54</ele>
        <time>2021-07-05T13:05:49Z</time>
      </trkpt>
      <trkpt lat="43.38694" lon="-1.65864">
        <ele>3.02</ele>
        <time>2021-07-05T13:05:51Z</time>
      </trkpt>
      <trkpt lat="43.38694" lon="-1.65864">
        <ele>3.02</ele>
        <time>2021-07-05T13:05:52Z</time>
      </trkpt>
      <trkpt lat="43.38678" lon="-1.65864">
        <ele>3.02</ele>
        <time>2021-07-05T13:05:53Z</time>
      </trkpt>
      <trkpt lat="43.38675" lon="-1.65868">
        <ele>3.02</ele>
        <time>2021-07-05T13:05:54Z</time>
      </trkpt>
      <trkpt lat="43.38672" lon="-1.65873">
        <ele>3.02</ele>
        <time>2021-07-05T13:05:55Z</time>
      </trkpt>
      <trkpt lat="43.38668" lon="-1.65878">
        <ele>3.02</ele>
        <time>2021-07-05T13:05:56Z</time>
      </trkpt>
      <trkpt lat="43.38665" lon="-1.65884">
        <ele>3.02</ele>
        <time>2021-07-05T13:05:57Z</time>
      </trkpt>
      <trkpt lat="43.38612" lon="-1.6605">
        <ele>3.02</ele>
        <time>2021-07-05T13:06:15Z</time>
      </trkpt>
      <trkpt lat="43.38608" lon="-1.66143">
        <ele>2.54</ele>
        <time>2021-07-05T13:06:26Z</time>
      </trkpt>
      <trkpt lat="43.38607" lon="-1.66149">
        <ele>2.06</ele>
        <time>2021-07-05T13:06:27Z</time>
      </trkpt>
      <trkpt lat="43.38622" lon="-1.66184">
        <ele>1.58</ele>
        <time>2021-07-05T13:06:35Z</time>
      </trkpt>
      <trkpt lat="43.38653" lon="-1.66262">
        <ele>0.62</ele>
        <time>2021-07-05T13:06:50Z</time>
      </trkpt>
      <trkpt lat="43.38677" lon="-1.66303">
        <ele>-1.3</ele>
        <time>2021-07-05T13:07:02Z</time>
      </trkpt>
      <trkpt lat="43.38686" lon="-1.66291">
        <ele>-1.79</ele>
        <time>2021-07-05T13:07:09Z</time>
      </trkpt>
      <trkpt lat="43.38687" lon="-1.66289">
        <ele>-1.79</ele>
        <time>2021-07-05T13:07:10Z</time>
      </trkpt>
      <trkpt lat="43.38688" lon="-1.66288">
        <ele>-1.79</ele>
        <time>2021-07-05T13:07:11Z</time>
      </trkpt>
      <trkpt lat="43.38689" lon="-1.66283">
        <ele>-2.27</ele>
        <time>2021-07-05T13:07:13Z</time>
      </trkpt>
      <trkpt lat="43.38688" lon="-1.66282">
        <ele>-2.27</ele>
        <time>2021-07-05T13:07:14Z</time>
      </trkpt>
      <trkpt lat="43.38671" lon="-1.6626">
        <ele>-1.79</ele>
        <time>2021-07-05T13:07:25Z</time>
      </trkpt>
      <trkpt lat="43.38665" lon="-1.6625">
        <ele>1.1</ele>
        <time>2021-07-05T13:07:40Z</time>
      </trkpt>
      <trkpt lat="43.38649" lon="-1.66252">
        <ele>1.1</ele>
        <time>2021-07-05T13:07:44Z</time>
      </trkpt>
      <trkpt lat="43.38649" lon="-1.66252">
        <ele>1.1</ele>
        <time>2021-07-05T13:07:45Z</time>
      </trkpt>
      <trkpt lat="43.38649" lon="-1.66252">
        <ele>1.1</ele>
        <time>2021-07-05T13:07:46Z</time>
      </trkpt>
      <trkpt lat="43.38648" lon="-1.66252">
        <ele>0.62</ele>
        <time>2021-07-05T13:07:47Z</time>
      </trkpt>
      <trkpt lat="43.38652" lon="-1.66259">
        <ele>0.62</ele>
        <time>2021-07-05T13:07:48Z</time>
      </trkpt>
      <trkpt lat="43.38655" lon="-1.66269">
        <ele>0.62</ele>
        <time>2021-07-05T13:07:49Z</time>
      </trkpt>
      <trkpt lat="43.38659" lon="-1.6628">
        <ele>0.62</ele>
        <time>2021-07-05T13:07:52Z</time>
      </trkpt>
      <trkpt lat="43.38661" lon="-1.66285">
        <ele>0.62</ele>
        <time>2021-07-05T13:07:53Z</time>
      </trkpt>
      <trkpt lat="43.38663" lon="-1.6629">
        <ele>0.14</ele>
        <time>2021-07-05T13:07:54Z</time>
      </trkpt>
      <trkpt lat="43.38664" lon="-1.66295">
        <ele>0.14</ele>
        <time>2021-07-05T13:07:55Z</time>
      </trkpt>
      <trkpt lat="43.38667" lon="-1.66299">
        <ele>0.14</ele>
        <time>2021-07-05T13:07:56Z</time>
      </trkpt>
      <trkpt lat="43.38672" lon="-1.66303">
        <ele>-0.34</ele>
        <time>2021-07-05T13:07:57Z</time>
      </trkpt>
      <trkpt lat="43.38676" lon="-1.66303">
        <ele>-0.82</ele>
        <time>2021-07-05T13:07:58Z</time>
      </trkpt>
      <trkpt lat="43.38681" lon="-1.66304">
        <ele>-1.3</ele>
        <time>2021-07-05T13:07:59Z</time>
      </trkpt>
      <trkpt lat="43.38685" lon="-1.66307">
        <ele>-1.3</ele>
        <time>2021-07-05T13:08:00Z</time>
      </trkpt>
      <trkpt lat="43.38687" lon="-1.66311">
        <ele>-1.79</ele>
        <time>2021-07-05T13:08:01Z</time>
      </trkpt>
      <trkpt lat="43.38689" lon="-1.66315">
        <ele>-1.3</ele>
        <time>2021-07-05T13:08:02Z</time>
      </trkpt>
      <trkpt lat="43.3869" lon="-1.66321">
        <ele>-0.82</ele>
        <time>2021-07-05T13:08:03Z</time>
      </trkpt>
      <trkpt lat="43.3869" lon="-1.66325">
        <ele>-0.82</ele>
        <time>2021-07-05T13:08:04Z</time>
      </trkpt>
      <trkpt lat="43.38686" lon="-1.66328">
        <ele>-0.82</ele>
        <time>2021-07-05T13:08:05Z</time>
      </trkpt>
      <trkpt lat="43.38683" lon="-1.6633">
        <ele>-0.82</ele>
        <time>2021-07-05T13:08:06Z</time>
      </trkpt>
      <trkpt lat="43.3868" lon="-1.66332">
        <ele>-1.3</ele>
        <time>2021-07-05T13:08:07Z</time>
      </trkpt>
      <trkpt lat="43.38678" lon="-1.66334">
        <ele>-1.3</ele>
        <time>2021-07-05T13:08:08Z</time>
      </trkpt>
      <trkpt lat="43.38673" lon="-1.66334">
        <ele>-1.3</ele>
        <time>2021-07-05T13:08:09Z</time>
      </trkpt>
      <trkpt lat="43.38671" lon="-1.66331">
        <ele>-1.3</ele>
        <time>2021-07-05T13:08:10Z</time>
      </trkpt>
      <trkpt lat="43.38668" lon="-1.66329">
        <ele>-1.3</ele>
        <time>2021-07-05T13:08:11Z</time>
      </trkpt>
      <trkpt lat="43.38664" lon="-1.66325">
        <ele>-0.34</ele>
        <time>2021-07-05T13:08:12Z</time>
      </trkpt>
      <trkpt lat="43.38664" lon="-1.66325">
        <ele>-0.34</ele>
        <time>2021-07-05T13:08:13Z</time>
      </trkpt>
      <trkpt lat="43.38663" lon="-1.66316">
        <ele>-0.34</ele>
        <time>2021-07-05T13:08:14Z</time>
      </trkpt>
      <trkpt lat="43.38658" lon="-1.66309">
        <ele>-0.34</ele>
        <time>2021-07-05T13:08:15Z</time>
      </trkpt>
      <trkpt lat="43.38658" lon="-1.66309">
        <ele>-0.34</ele>
        <time>2021-07-05T13:08:16Z</time>
      </trkpt>
      <trkpt lat="43.38656" lon="-1.66305">
        <ele>-0.34</ele>
        <time>2021-07-05T13:08:17Z</time>
      </trkpt>
      <trkpt lat="43.38632" lon="-1.66237">
        <ele>1.1</ele>
        <time>2021-07-05T13:08:33Z</time>
      </trkpt>
    </trkseg>
  </trk>
</gpx>